Flight Track Log - Related Links

Times and Time Zones

All times are in EDT time to prevent confusion due to time zone crossing. See the N641BB flight status page for this flight to view local times or setup timezone preferences in your user account.

Time Position Orientation Groundspeed Altitude Reporting Facility
EDT Latitude Longitude Course Direction KTS MPH feet Rate Location/Type
Sat 07:52:09 PM 37.9936 -84.5633 107° East 113 130 2,500  Level Indianapolis Center
Sat 07:53:11 PM 37.9892 -84.5258 99° East 109 125 3,100 537 Climbing Indianapolis Center
Sat 07:54:12 PM 37.9819 -84.4892 104° East 108 124 3,600 590 Climbing Indianapolis Center
Sat 07:55:13 PM 37.9753 -84.4514 103° East 109 125 4,300 689 Climbing Indianapolis Center
Sat 07:56:00 PM 37.9743 -84.3297 106° East  Level Estimated
Sat 07:56:14 PM 37.9658 -84.4164 109° East 106 122 5,000  Level Indianapolis Center
Sat 07:57:00 PM 37.9632 -84.2835 107° East  Level FlightAware Approximate
Sat 07:57:16 PM 37.9550 -84.3750 108° East 118 136 5,000  Level Indianapolis Center
Sat 07:58:17 PM 37.9411 -84.3297 111° Southeast 134 154 5,000  Level Indianapolis Center
Sat 07:59:18 PM 37.9308 -84.2814 105° East 139 160 5,000  Level Indianapolis Center
Sat 08:00:19 PM 37.9211 -84.2339 105° East 141 162 5,000  Level Indianapolis Center
Sat 08:01:21 PM 37.9089 -84.1778 105° East 141 162 5,000  Level Indianapolis Center
Sat 08:02:22 PM 37.8983 -84.1303 106° East 140 161 5,000  Level Indianapolis Center
Sat 08:03:23 PM 37.8883 -84.0822 105° East 140 161 5,000  Level Indianapolis Center
Sat 08:04:24 PM 37.8783 -84.0358 105° East 139 160 5,000  Level Indianapolis Center
Sat 08:05:26 PM 37.8689 -83.9881 104° East 139 160 5,000  Level Indianapolis Center
Sat 08:06:27 PM 37.8583 -83.9400 106° East 141 162 5,000  Level Indianapolis Center
Sat 08:07:28 PM 37.8489 -83.8939 105° East 138 159 5,000  Level Indianapolis Center
Sat 08:08:29 PM 37.8389 -83.8456 105° East 139 160 5,000  Level Indianapolis Center
Sat 08:09:31 PM 37.8431 -83.7961 84° East 141 162 5,000  Level Indianapolis Center
Sat 08:10:32 PM 37.8478 -83.7469 83° East 140 161 5,000  Level Indianapolis Center
Sat 08:11:33 PM 37.8389 -83.6903 101° East 141 162 5,000  Level Indianapolis Center
Sat 08:12:34 PM 37.8292 -83.6428 105° East 141 162 5,000  Level Indianapolis Center
Sat 08:13:36 PM 37.8208 -83.5947 102° East 140 161 5,000  Level Indianapolis Center
Sat 08:14:37 PM 37.8131 -83.5472 102° East 139 160 5,000  Level Indianapolis Center
Sat 08:15:38 PM 37.8039 -83.5008 104° East 138 159 5,000  Level Indianapolis Center
Sat 08:16:39 PM 37.7958 -83.4539 102° East 137 158 5,000  Level Indianapolis Center
Sat 08:17:40 PM 37.7883 -83.4058 101° East 137 158 5,000 -98 Level Indianapolis Center
Sat 08:18:42 PM 37.7756 -83.3608 110° East 138 159 4,800 -195 Descending Indianapolis Center
Sat 08:19:43 PM 37.7617 -83.3131 110° East 141 162 4,600 -148 Descending Indianapolis Center
Sat 08:20:44 PM 37.7475 -83.2636 110° East 145 167 4,500 -49 Descending Indianapolis Center
Sat 08:21:45 PM 37.7350 -83.2103 106° East 141 162 4,500  Level Indianapolis Center
Sat 08:22:46 PM 37.7225 -83.1664 110° East 137 158 4,500  Level Indianapolis Center
Sat 08:23:48 PM 37.7111 -83.1217 108° East 134 154 4,500  Level Indianapolis Center
Sat 08:24:49 PM 37.7000 -83.0761 107° East 135 155 4,500  Level Indianapolis Center
Sat 08:25:50 PM 37.6875 -83.0322 110° East 134 154 4,500  Level Indianapolis Center
Sat 08:26:51 PM 37.6764 -82.9900 108° East 130 150 4,500  Level Indianapolis Center
Sat 08:27:52 PM 37.6644 -82.9453 109° East 131 151 4,500  Level Indianapolis Center
Sat 08:28:53 PM 37.6514 -82.9003 110° East 135 155 4,500  Level Indianapolis Center

Login

Don't have an account? Register now (free) for customized features, flight alerts, and more!